createdAt,value
2023-02-03T00:01:19.060Z,1.00
2023-02-03T00:03:21.403Z,1.00
2023-02-03T00:05:23.793Z,1.00
2023-02-03T00:07:25.672Z,0.00
2023-02-03T00:09:27.408Z,0.00
2023-02-03T00:11:31.332Z,0.33
2023-02-03T00:13:34.055Z,4.33
2023-02-03T00:15:37.188Z,0.00
2023-02-03T00:17:39.212Z,2.00
2023-02-03T00:19:41.257Z,0.00
2023-02-03T00:21:43.068Z,0.00
2023-02-03T00:23:44.857Z,1.00
2023-02-03T00:25:46.476Z,1.00
2023-02-03T00:27:48.063Z,0.00
2023-02-03T00:29:49.887Z,0.67
2023-02-03T00:31:53.885Z,1.00
2023-02-03T00:33:57.335Z,0.00
2023-02-03T00:35:59.277Z,0.00
2023-02-03T00:38:01.205Z,1.33
2023-02-03T00:40:03.327Z,1.00
2023-02-03T00:42:06.022Z,0.00
2023-02-03T00:44:07.563Z,1.00
2023-02-03T00:46:09.516Z,1.00
2023-02-03T00:48:12.669Z,1.00
2023-02-03T00:50:14.504Z,1.33
2023-02-03T00:52:16.253Z,0.00
2023-02-03T00:54:18.048Z,0.67
2023-02-03T00:56:19.872Z,1.00
2023-02-03T00:58:21.550Z,0.00
2023-02-03T01:00:23.792Z,0.00
2023-02-03T01:02:25.847Z,0.67
2023-02-03T01:04:29.154Z,0.00
2023-02-03T01:06:31.129Z,1.00
2023-02-03T01:08:32.633Z,1.00
2023-02-03T01:10:34.235Z,0.00
2023-02-03T01:12:35.874Z,3.33
2023-02-03T01:14:37.700Z,0.00
2023-02-03T01:16:39.550Z,0.00
2023-02-03T01:18:41.634Z,0.00
2023-02-03T01:20:44.725Z,1.00
2023-02-03T01:22:46.436Z,2.00
2023-02-03T01:24:48.064Z,1.00
2023-02-03T01:26:49.571Z,1.00
2023-02-03T01:28:52.654Z,0.00
2023-02-03T01:30:54.654Z,0.00
2023-02-03T01:32:56.478Z,0.00
2023-02-03T01:34:58.274Z,0.00
2023-02-03T01:37:01.244Z,0.00
2023-02-03T01:39:03.682Z,0.33
2023-02-03T01:41:08.090Z,0.00
2023-02-03T01:43:10.051Z,1.00
2023-02-03T01:45:13.508Z,1.00
2023-02-03T01:47:22.454Z,4.00
2023-02-03T01:49:27.426Z,0.00
2023-02-03T01:51:30.221Z,1.00
2023-02-03T01:53:34.314Z,1.00
2023-02-03T01:55:40.131Z,0.33
2023-02-03T01:57:47.819Z,0.67
2023-02-03T01:59:52.461Z,1.00
2023-02-03T02:01:54.850Z,0.00
2023-02-03T02:04:00.084Z,1.00
2023-02-03T02:06:05.408Z,0.67
2023-02-03T02:08:09.316Z,0.00
2023-02-03T02:10:12.900Z,0.00
2023-02-03T02:12:14.490Z,0.33
2023-02-03T02:14:16.360Z,0.00
2023-02-03T02:16:26.811Z,0.00
2023-02-03T02:18:41.623Z,0.00
2023-02-03T02:21:09.372Z,0.67
2023-02-03T02:23:40.442Z,0.00
2023-02-03T02:26:05.328Z,0.00
2023-02-03T02:28:31.017Z,1.00
2023-02-03T02:30:54.920Z,0.00
2023-02-03T02:33:11.825Z,1.00
2023-02-03T02:35:22.943Z,1.00
2023-02-03T02:37:34.628Z,0.00
2023-02-03T02:39:46.466Z,0.00
2023-02-03T02:41:55.792Z,1.00
2023-02-03T02:44:02.944Z,0.00
2023-02-03T02:46:10.960Z,0.00
2023-02-03T02:48:20.864Z,0.00
2023-02-03T02:50:26.855Z,0.00
2023-02-03T02:52:32.200Z,1.00
2023-02-03T02:54:39.749Z,0.00
2023-02-03T02:56:43.599Z,1.00
2023-02-03T02:58:48.760Z,0.00
2023-02-03T03:00:50.352Z,0.00
2023-02-03T03:02:52.064Z,0.67
2023-02-03T03:04:55.305Z,1.00
2023-02-03T03:07:01.396Z,2.00
2023-02-03T03:09:08.898Z,0.00
2023-02-03T03:11:10.921Z,0.00
2023-02-03T03:13:17.297Z,1.00
2023-02-03T03:15:23.393Z,0.33
2023-02-03T03:17:29.112Z,0.00
2023-02-03T03:19:34.948Z,0.00
2023-02-03T03:21:43.098Z,1.00
2023-02-03T03:23:49.366Z,0.00
2023-02-03T03:25:57.086Z,1.00
2023-02-03T03:28:02.003Z,0.00
2023-02-03T03:30:09.215Z,0.00
2023-02-03T03:32:11.405Z,0.00
2023-02-03T03:34:14.784Z,0.33
2023-02-03T03:36:25.359Z,0.00
2023-02-03T03:38:33.067Z,0.00
2023-02-03T03:40:39.728Z,0.00
2023-02-03T03:42:48.165Z,0.00
2023-02-03T03:44:56.458Z,1.67
2023-02-03T03:47:07.060Z,0.00
2023-02-03T03:49:11.391Z,0.00
2023-02-03T03:51:18.415Z,0.00
2023-02-03T03:53:23.448Z,0.00
2023-02-03T03:55:29.328Z,2.00
2023-02-03T03:57:37.402Z,0.00
2023-02-03T03:59:55.079Z,0.00
2023-02-03T04:01:57.551Z,0.00
2023-02-03T04:04:03.385Z,0.00
2023-02-03T04:06:05.888Z,1.00
2023-02-03T04:08:07.586Z,0.00
2023-02-03T04:10:18.135Z,0.00
2023-02-03T04:12:24.347Z,0.00
2023-02-03T04:14:26.156Z,0.00
2023-02-03T04:16:27.916Z,0.00
2023-02-03T04:18:32.825Z,2.00
2023-02-03T04:20:34.552Z,0.00
2023-02-03T04:22:36.213Z,1.00
2023-02-03T04:24:37.720Z,1.33
2023-02-03T04:26:39.706Z,0.00
2023-02-03T04:28:44.003Z,0.67
2023-02-03T04:30:45.630Z,0.00
2023-02-03T04:32:48.001Z,0.00
2023-02-03T04:34:50.024Z,1.00
2023-02-03T04:36:51.913Z,0.00
2023-02-03T04:38:53.611Z,0.00
2023-02-03T04:40:56.489Z,0.00
2023-02-03T04:42:59.453Z,1.00
2023-02-03T04:45:02.416Z,0.00
2023-02-03T04:47:04.176Z,0.00
2023-02-03T04:49:07.564Z,0.00
2023-02-03T04:51:09.579Z,0.33
2023-02-03T04:53:11.186Z,0.00
2023-02-03T04:55:13.317Z,0.00
2023-02-03T04:57:15.222Z,0.00
2023-02-03T04:59:17.118Z,0.00
2023-02-03T05:01:20.059Z,0.00
2023-02-03T05:03:24.141Z,0.00
2023-02-03T05:05:27.572Z,0.00
2023-02-03T05:07:31.037Z,0.00
2023-02-03T05:09:32.591Z,0.00
2023-02-03T05:11:35.611Z,1.00
2023-02-03T05:13:37.112Z,0.00
2023-02-03T05:15:38.755Z,2.00
2023-02-03T05:17:41.913Z,0.00
2023-02-03T05:19:43.383Z,0.00
2023-02-03T05:21:45.393Z,0.00
2023-02-03T05:23:47.360Z,0.00
2023-02-03T05:25:49.139Z,0.00
2023-02-03T05:27:50.935Z,0.67
2023-02-03T05:29:52.979Z,0.00
2023-02-03T05:31:54.695Z,1.00
2023-02-03T05:33:57.830Z,0.00
2023-02-03T05:35:59.669Z,0.00
2023-02-03T05:38:02.502Z,2.00
2023-02-03T05:40:05.080Z,1.00
2023-02-03T05:42:06.629Z,1.67
2023-02-03T05:44:08.946Z,0.67
2023-02-03T05:46:10.893Z,0.00
2023-02-03T05:48:12.814Z,0.00
2023-02-03T05:50:16.031Z,1.00
2023-02-03T05:52:17.728Z,1.67
2023-02-03T05:54:19.539Z,1.67
2023-02-03T05:56:21.462Z,1.00
2023-02-03T05:58:23.024Z,1.33
2023-02-03T06:00:25.054Z,1.00
2023-02-03T06:02:28.743Z,1.00
2023-02-03T06:04:30.317Z,1.00
2023-02-03T06:06:33.684Z,2.00
2023-02-03T06:08:35.479Z,1.33
2023-02-03T06:10:37.006Z,2.00
2023-02-03T06:12:38.633Z,1.00
2023-02-03T06:14:40.262Z,1.33
2023-02-03T06:16:42.027Z,2.67
2023-02-03T06:18:43.779Z,0.67
2023-02-03T06:20:45.862Z,2.00
2023-02-03T06:22:48.824Z,2.67
2023-02-03T06:24:50.459Z,1.00
2023-02-03T06:26:52.500Z,2.00
2023-02-03T06:28:54.238Z,1.00
2023-02-03T06:30:55.947Z,5.00
2023-02-03T06:32:57.735Z,1.67
2023-02-03T06:34:59.526Z,1.67
2023-02-03T06:37:01.570Z,1.00
2023-02-03T06:39:04.479Z,1.00
2023-02-03T06:41:06.135Z,1.00
2023-02-03T06:43:08.005Z,1.00
2023-02-03T06:45:10.340Z,2.00
2023-02-03T06:47:11.919Z,2.00
2023-02-03T06:49:13.899Z,1.00
2023-02-03T06:51:15.690Z,0.00
2023-02-03T06:53:17.471Z,2.00
2023-02-03T06:55:20.610Z,3.00
2023-02-03T06:57:22.481Z,2.00
2023-02-03T06:59:24.369Z,2.00
2023-02-03T07:01:26.165Z,2.00
2023-02-03T07:03:27.792Z,2.00
2023-02-03T07:05:29.377Z,1.00
2023-02-03T07:07:31.272Z,1.00
2023-02-03T07:09:32.830Z,0.00
2023-02-03T07:11:35.945Z,1.00
2023-02-03T07:13:37.566Z,1.00
2023-02-03T07:15:39.336Z,1.00
2023-02-03T07:17:40.928Z,0.67
2023-02-03T07:19:45.109Z,0.00
2023-02-03T07:21:47.666Z,0.00
2023-02-03T07:23:50.074Z,0.00
2023-02-03T07:25:51.650Z,0.00
2023-02-03T07:27:54.792Z,0.00
2023-02-03T07:29:56.427Z,4.00
2023-02-03T07:31:58.117Z,14.25
2023-02-03T07:33:59.895Z,45.50
2023-02-03T07:36:02.422Z,71.75
2023-02-03T07:38:04.032Z,77.00
2023-02-03T07:40:06.511Z,76.75
2023-02-03T07:42:08.087Z,69.50
2023-02-03T07:44:11.026Z,49.00
2023-02-03T07:46:13.026Z,32.75
2023-02-03T07:48:14.856Z,9.60
2023-02-03T07:50:16.604Z,0.50
2023-02-03T07:52:19.065Z,0.00
2023-02-03T07:54:21.234Z,0.00
2023-02-03T07:56:22.805Z,0.00
2023-02-03T07:58:24.566Z,0.00
2023-02-03T08:00:28.041Z,0.00
2023-02-03T08:02:29.830Z,0.50
2023-02-03T08:04:31.365Z,0.00
2023-02-03T08:06:32.903Z,0.00
2023-02-03T08:08:34.840Z,0.00
2023-02-03T08:10:36.439Z,0.00
2023-02-03T08:12:38.063Z,1.00
2023-02-03T08:14:39.792Z,0.00
2023-02-03T08:16:43.078Z,0.00
2023-02-03T08:18:44.741Z,0.00
2023-02-03T08:20:47.210Z,0.00
2023-02-03T08:22:48.805Z,0.00
2023-02-03T08:24:50.529Z,0.00
2023-02-03T08:26:52.266Z,0.00
2023-02-03T08:28:54.036Z,1.00
2023-02-03T08:30:56.681Z,0.00
2023-02-03T08:32:59.797Z,0.75
2023-02-03T08:35:01.446Z,0.25
2023-02-03T08:37:03.252Z,0.00
2023-02-03T08:39:05.110Z,0.00
2023-02-03T08:41:10.473Z,0.00
2023-02-03T08:43:12.105Z,0.00
2023-02-03T08:45:13.753Z,0.00
2023-02-03T08:47:15.814Z,0.00
2023-02-03T08:49:19.874Z,0.00
2023-02-03T08:51:21.413Z,0.00
2023-02-03T08:53:23.154Z,0.00
2023-02-03T08:55:24.798Z,0.00
2023-02-03T08:57:26.357Z,0.00
2023-02-03T08:59:28.335Z,0.00
2023-02-03T09:01:30.074Z,0.00
2023-02-03T09:03:31.779Z,0.00
2023-02-03T09:05:34.876Z,0.00
2023-02-03T09:07:36.499Z,0.00
2023-02-03T09:09:38.313Z,0.00
2023-02-03T09:11:41.457Z,0.00
2023-02-03T09:13:43.796Z,0.00
2023-02-03T09:15:45.330Z,0.25
2023-02-03T09:17:47.028Z,0.00
2023-02-03T09:19:48.617Z,0.25
2023-02-03T09:21:51.845Z,0.00
2023-02-03T09:23:53.611Z,2.00
2023-02-03T09:25:55.237Z,0.25
2023-02-03T09:27:56.832Z,3.25
2023-02-03T09:29:58.591Z,1.00
2023-02-03T09:32:00.286Z,1.00
2023-02-03T09:34:02.208Z,2.00
2023-02-03T09:36:05.033Z,1.00
2023-02-03T09:38:08.259Z,1.00
2023-02-03T09:40:20.800Z,0.00
2023-02-03T09:42:38.616Z,2.00
2023-02-03T09:44:47.873Z,2.50
2023-02-03T09:46:53.588Z,3.00
2023-02-03T09:48:59.025Z,0.00
2023-02-03T09:51:01.790Z,1.00
2023-02-03T09:53:10.724Z,4.50
2023-02-03T09:55:26.008Z,1.50
2023-02-03T09:57:30.284Z,0.75
2023-02-03T09:59:34.663Z,2.25
2023-02-03T10:01:45.221Z,1.50
2023-02-03T10:03:54.228Z,3.00
2023-02-03T10:06:14.099Z,2.75
2023-02-03T10:08:26.050Z,3.25
2023-02-03T10:10:39.651Z,3.00
2023-02-03T10:12:58.320Z,4.00
2023-02-03T10:15:20.389Z,4.50
2023-02-03T10:17:30.980Z,6.75
2023-02-03T10:19:38.650Z,3.75
2023-02-03T10:21:45.051Z,6.50
2023-02-03T10:23:50.073Z,5.75
2023-02-03T10:25:57.414Z,10.25
2023-02-03T10:28:03.996Z,9.00
2023-02-03T10:30:18.388Z,8.25
2023-02-03T10:32:20.130Z,8.50
2023-02-03T10:34:21.687Z,4.25
2023-02-03T10:36:30.283Z,11.75
2023-02-03T10:38:49.335Z,8.00
2023-02-03T10:40:51.090Z,11.00
2023-02-03T10:42:54.123Z,4.00
2023-02-03T10:44:58.197Z,7.25
2023-02-03T10:46:59.914Z,6.25
2023-02-03T10:49:01.972Z,9.75
2023-02-03T10:51:03.892Z,6.50
2023-02-03T10:53:24.228Z,7.75
2023-02-03T10:55:31.716Z,7.00
2023-02-03T10:57:36.953Z,8.50
2023-02-03T10:59:42.714Z,9.00
2023-02-03T11:01:47.836Z,9.50
2023-02-03T11:04:00.523Z,3.00
2023-02-03T11:06:08.360Z,9.75
2023-02-03T11:08:15.264Z,5.25
2023-02-03T11:10:29.145Z,10.50
2023-02-03T11:12:30.918Z,9.00
2023-02-03T11:14:36.949Z,6.50
2023-02-03T11:16:42.699Z,8.50
2023-02-03T11:18:52.300Z,14.00
2023-02-03T11:20:54.213Z,4.00
2023-02-03T11:22:56.485Z,4.75
2023-02-03T11:24:59.819Z,8.00
2023-02-03T11:27:05.584Z,7.50
2023-02-03T11:29:16.840Z,4.00
2023-02-03T11:31:22.220Z,6.25
2023-02-03T11:33:28.989Z,6.75
2023-02-03T11:35:31.421Z,9.00
2023-02-03T11:37:37.727Z,4.75
2023-02-03T11:39:39.468Z,3.75
2023-02-03T11:41:41.347Z,8.75
2023-02-03T11:43:42.980Z,8.50
2023-02-03T11:45:47.693Z,1.50
2023-02-03T11:47:54.173Z,5.25
2023-02-03T11:50:10.902Z,3.50
2023-02-03T11:52:57.899Z,7.75
2023-02-03T11:55:08.731Z,1.25
2023-02-03T11:57:25.497Z,3.75
2023-02-03T12:00:02.408Z,8.00
2023-02-03T12:02:38.261Z,5.50
2023-02-03T12:05:06.521Z,5.00
2023-02-03T12:07:29.608Z,5.00
2023-02-03T12:09:45.904Z,4.25
2023-02-03T12:12:06.836Z,5.50
2023-02-03T12:14:26.405Z,7.25
2023-02-03T12:16:47.924Z,4.75
2023-02-03T12:19:01.641Z,5.50
2023-02-03T12:21:24.474Z,6.00
2023-02-03T12:23:37.513Z,3.50
2023-02-03T12:25:51.750Z,5.50
2023-02-03T12:28:03.742Z,3.25
2023-02-03T12:30:12.488Z,3.00
2023-02-03T12:32:25.271Z,7.50
2023-02-03T12:34:33.281Z,10.00
2023-02-03T12:36:40.962Z,5.25
2023-02-03T12:38:49.199Z,3.50
2023-02-03T12:40:55.134Z,2.75
2023-02-03T12:43:03.547Z,3.00
2023-02-03T12:45:12.263Z,4.50
2023-02-03T12:47:23.783Z,4.00
2023-02-03T12:49:33.489Z,4.00
2023-02-03T12:51:42.830Z,3.50
2023-02-03T12:53:51.343Z,3.75
2023-02-03T12:55:58.204Z,4.75
2023-02-03T12:58:03.728Z,5.50
2023-02-03T13:00:22.780Z,8.00
2023-02-03T13:02:29.239Z,6.25
2023-02-03T13:04:36.881Z,8.75
2023-02-03T13:06:49.169Z,3.50
2023-02-03T13:09:22.532Z,2.50
2023-02-03T13:11:31.456Z,11.75
2023-02-03T13:13:40.066Z,4.50
2023-02-03T13:15:45.619Z,8.25
2023-02-03T13:17:52.591Z,6.25
2023-02-03T13:19:58.374Z,2.50
2023-02-03T13:22:01.935Z,3.75
2023-02-03T13:24:04.557Z,6.25
2023-02-03T13:26:34.889Z,7.50
2023-02-03T13:28:53.260Z,7.25
2023-02-03T13:31:24.681Z,7.00
2023-02-03T13:33:52.408Z,3.25
2023-02-03T13:36:08.679Z,7.25
2023-02-03T13:38:34.466Z,8.50
2023-02-03T13:40:47.228Z,7.25
2023-02-03T13:42:55.557Z,12.50
2023-02-03T13:45:02.257Z,10.00
2023-02-03T13:47:04.551Z,6.50
2023-02-03T13:49:08.897Z,2.75
2023-02-03T13:51:17.613Z,4.50
2023-02-03T13:53:22.628Z,5.00
2023-02-03T13:55:35.542Z,8.00
2023-02-03T13:57:39.183Z,7.75
2023-02-03T13:59:43.091Z,5.00
2023-02-03T14:01:44.878Z,6.00
2023-02-03T14:03:47.467Z,8.00
2023-02-03T14:05:50.135Z,1.50
2023-02-03T14:07:51.940Z,10.50
2023-02-03T14:10:20.204Z,2.00
2023-02-03T14:12:33.437Z,6.00
2023-02-03T14:14:43.157Z,4.25
2023-02-03T14:16:46.576Z,3.75
2023-02-03T14:18:48.442Z,2.75
2023-02-03T14:20:56.674Z,3.50
2023-02-03T14:23:06.967Z,3.00
2023-02-03T14:25:08.857Z,6.00
2023-02-03T14:27:22.320Z,1.50
2023-02-03T14:29:28.498Z,1.50
2023-02-03T14:31:30.719Z,6.00
2023-02-03T14:33:54.039Z,8.00
2023-02-03T14:35:55.704Z,7.75
2023-02-03T14:38:00.811Z,5.75
2023-02-03T14:40:18.395Z,5.25
2023-02-03T14:42:31.964Z,12.75
2023-02-03T14:44:46.965Z,12.00
2023-02-03T14:47:04.942Z,7.50
2023-02-03T14:49:36.926Z,5.50
2023-02-03T14:51:52.259Z,2.75
2023-02-03T14:54:17.562Z,9.00
2023-02-03T14:56:27.965Z,2.75
2023-02-03T14:58:35.966Z,6.00
2023-02-03T15:00:39.096Z,3.00
2023-02-03T15:03:16.138Z,6.50
2023-02-03T15:05:39.766Z,4.50
2023-02-03T15:07:44.029Z,8.50
2023-02-03T15:09:47.796Z,11.25
2023-02-03T15:11:49.529Z,2.50
2023-02-03T15:13:51.576Z,7.25
2023-02-03T15:15:57.585Z,3.00
2023-02-03T15:18:19.880Z,4.00
2023-02-03T15:20:32.591Z,1.25
2023-02-03T15:22:38.231Z,3.25
2023-02-03T15:24:41.606Z,5.50
2023-02-03T15:26:47.441Z,6.75
2023-02-03T15:28:56.501Z,2.00
2023-02-03T15:31:06.599Z,3.00
2023-02-03T15:33:14.109Z,6.00
2023-02-03T15:35:19.689Z,5.00
2023-02-03T15:37:25.756Z,4.50
2023-02-03T15:39:39.120Z,3.00
2023-02-03T15:41:41.527Z,3.75
2023-02-03T15:43:46.996Z,6.50
2023-02-03T15:45:59.084Z,6.75
2023-02-03T15:48:07.688Z,5.00
2023-02-03T15:50:24.937Z,10.25
2023-02-03T15:52:29.064Z,11.25
2023-02-03T15:54:34.363Z,2.75
2023-02-03T15:56:39.923Z,12.00
2023-02-03T15:58:46.316Z,5.75
2023-02-03T16:00:51.711Z,12.00
2023-02-03T16:02:54.629Z,6.00
2023-02-03T16:04:58.240Z,6.00
2023-02-03T16:07:00.401Z,2.25
2023-02-03T16:09:02.242Z,7.00
2023-02-03T16:11:22.984Z,7.25
2023-02-03T16:13:26.412Z,8.75
2023-02-03T16:15:28.440Z,5.25
2023-02-03T16:17:32.751Z,7.00
2023-02-03T16:19:34.499Z,11.50
2023-02-03T16:21:51.784Z,4.00
2023-02-03T16:23:53.542Z,7.50
2023-02-03T16:26:06.815Z,7.75
2023-02-03T16:28:17.209Z,3.00
2023-02-03T16:30:24.665Z,2.00
2023-02-03T16:32:26.618Z,2.75
2023-02-03T16:34:30.210Z,7.00
2023-02-03T16:36:34.215Z,4.75
2023-02-03T16:38:37.532Z,2.00
2023-02-03T16:40:39.360Z,6.00
2023-02-03T16:42:41.236Z,6.50
2023-02-03T16:44:43.201Z,6.25
2023-02-03T16:46:47.221Z,4.25
2023-02-03T16:48:48.818Z,3.00
2023-02-03T16:50:50.573Z,1.75
2023-02-03T16:52:52.806Z,1.50
2023-02-03T16:54:55.886Z,4.25
2023-02-03T16:56:58.799Z,1.75
2023-02-03T16:59:01.479Z,1.00
2023-02-03T17:01:04.937Z,2.50
2023-02-03T17:03:06.777Z,1.75
2023-02-03T17:05:08.393Z,2.75
2023-02-03T17:07:09.976Z,5.75
2023-02-03T17:09:11.799Z,2.50
2023-02-03T17:11:16.331Z,2.00
2023-02-03T17:13:20.644Z,1.00
2023-02-03T17:15:22.591Z,1.50
2023-02-03T17:17:24.222Z,1.75
2023-02-03T17:19:25.972Z,0.00
2023-02-03T17:21:29.872Z,0.50
2023-02-03T17:23:31.648Z,1.00
2023-02-03T17:25:34.137Z,1.50
2023-02-03T17:27:37.567Z,1.00
2023-02-03T17:29:39.316Z,2.00
2023-02-03T17:31:40.917Z,1.00
2023-02-03T17:33:42.973Z,0.00
2023-02-03T17:35:45.548Z,0.00
2023-02-03T17:37:47.105Z,0.25
2023-02-03T17:53:45.150Z,6.00
2023-02-03T17:57:53.674Z,15.67
2023-02-03T17:59:56.802Z,19.67
2023-02-03T18:01:58.449Z,26.00
2023-02-03T18:04:02.177Z,22.33
2023-02-03T18:06:04.529Z,17.33
2023-02-03T18:08:12.340Z,4.67
2023-02-03T18:10:18.514Z,0.00
2023-02-03T18:12:20.272Z,0.33
2023-02-03T18:14:21.787Z,0.67
2023-02-03T18:16:26.931Z,0.00
2023-02-03T18:18:28.791Z,0.00
2023-02-03T18:20:30.896Z,0.00
2023-02-03T18:22:32.840Z,2.00
2023-02-03T18:24:34.763Z,0.00
2023-02-03T18:26:46.782Z,0.00
2023-02-03T18:28:51.352Z,0.00
2023-02-03T18:30:59.206Z,0.00
2023-02-03T18:33:02.239Z,0.00
2023-02-03T18:35:04.573Z,0.00
2023-02-03T18:37:06.573Z,0.00
2023-02-03T18:39:11.087Z,0.67
2023-02-03T18:41:16.542Z,0.00
2023-02-03T18:43:18.399Z,0.00
2023-02-03T18:45:20.086Z,0.00
2023-02-03T18:47:21.940Z,0.00
2023-02-03T18:49:24.931Z,0.00
2023-02-03T18:51:27.012Z,0.00
2023-02-03T18:53:28.829Z,0.00
2023-02-03T18:55:30.407Z,0.00
2023-02-03T18:57:32.030Z,0.00
2023-02-03T18:59:34.879Z,1.00
2023-02-03T19:01:37.378Z,0.00
2023-02-03T19:03:39.218Z,0.00
2023-02-03T19:05:43.156Z,0.00
2023-02-03T19:07:45.004Z,1.00
2023-02-03T19:09:46.973Z,0.00
2023-02-03T19:11:49.052Z,0.00
2023-02-03T19:13:50.655Z,0.00
2023-02-03T19:15:52.263Z,0.00
2023-02-03T19:17:54.167Z,0.00
2023-02-03T19:19:55.815Z,1.00
2023-02-03T19:21:58.832Z,0.00
2023-02-03T19:24:00.685Z,0.00
2023-02-03T19:26:02.345Z,0.33
2023-02-03T19:28:04.449Z,1.00
2023-02-03T19:30:06.990Z,0.00
2023-02-03T19:32:08.933Z,0.67
2023-02-03T19:34:11.573Z,0.00
2023-02-03T19:36:13.186Z,0.00
2023-02-03T19:38:16.541Z,0.00
2023-02-03T19:40:18.705Z,0.00
2023-02-03T19:42:20.637Z,1.00
2023-02-03T19:44:22.395Z,0.00
2023-02-03T19:46:24.180Z,0.00
2023-02-03T19:48:26.318Z,0.00
2023-02-03T19:50:28.281Z,0.00
2023-02-03T19:52:30.557Z,0.00
2023-02-03T19:54:33.543Z,0.00
2023-02-03T19:56:35.389Z,0.00
2023-02-03T19:58:37.240Z,0.00
2023-02-03T20:00:39.116Z,0.00
2023-02-03T20:02:40.880Z,0.00
2023-02-03T20:04:42.587Z,0.00
2023-02-03T20:06:44.417Z,0.00
2023-02-03T20:08:46.050Z,0.00
2023-02-03T20:10:49.239Z,0.00
2023-02-03T20:12:50.946Z,0.00
2023-02-03T20:14:52.828Z,2.00
2023-02-03T20:16:54.493Z,0.00
2023-02-03T20:18:56.231Z,0.00
2023-02-03T20:20:57.831Z,0.00
2023-02-03T20:22:59.836Z,0.00
2023-02-03T20:25:01.970Z,0.00
2023-02-03T20:27:04.954Z,0.00
2023-02-03T20:29:08.347Z,0.00
2023-02-03T20:31:10.500Z,0.00
2023-02-03T20:33:12.497Z,0.00
2023-02-03T20:35:14.285Z,0.00
2023-02-03T20:37:16.224Z,0.00
2023-02-03T20:39:22.540Z,0.00
2023-02-03T20:41:24.145Z,0.00
2023-02-03T20:43:28.207Z,0.00
2023-02-03T20:45:30.253Z,0.00
2023-02-03T20:47:33.618Z,0.00
2023-02-03T20:49:35.370Z,0.00
2023-02-03T20:51:36.974Z,0.00
2023-02-03T20:53:39.773Z,0.00
2023-02-03T20:55:41.955Z,0.00
2023-02-03T20:57:44.451Z,0.00
2023-02-03T20:59:47.662Z,0.00
2023-02-03T21:01:49.332Z,0.00
2023-02-03T21:03:51.046Z,1.00
2023-02-03T21:05:52.726Z,0.00
2023-02-03T21:07:54.536Z,0.67
2023-02-03T21:09:57.598Z,0.33
2023-02-03T21:11:59.422Z,1.00
2023-02-03T21:14:01.271Z,1.00
2023-02-03T21:16:15.165Z,2.33
2023-02-03T21:18:29.229Z,3.33
2023-02-03T21:20:32.480Z,0.33
2023-02-03T21:22:34.661Z,0.67
2023-02-03T21:24:37.023Z,0.00
2023-02-03T21:26:38.825Z,0.00
2023-02-03T21:28:40.454Z,0.00
2023-02-03T21:32:45.285Z,0.00
2023-02-03T21:34:48.031Z,0.00
2023-02-03T21:36:49.645Z,0.00
2023-02-03T21:38:53.137Z,0.00
2023-02-03T21:40:55.213Z,0.00
2023-02-03T21:43:00.141Z,0.00
2023-02-03T21:45:01.777Z,0.00
2023-02-03T21:47:04.901Z,1.00
2023-02-03T21:49:15.124Z,0.00
2023-02-03T21:51:18.544Z,0.00
2023-02-03T21:53:29.095Z,0.00
2023-02-03T21:55:31.127Z,0.00
2023-02-03T21:57:32.698Z,0.00
2023-02-03T21:59:39.567Z,0.00
2023-02-03T22:01:41.507Z,0.00
2023-02-03T22:03:45.816Z,0.00
2023-02-03T22:05:49.057Z,0.33
2023-02-03T22:07:50.962Z,0.00
2023-02-03T22:09:52.782Z,1.00
2023-02-03T22:11:54.442Z,0.00
2023-02-03T22:13:57.236Z,0.00
2023-02-03T22:15:59.058Z,0.00
2023-02-03T22:18:00.967Z,0.00
2023-02-03T22:20:02.601Z,0.00
2023-02-03T22:22:05.864Z,0.00
2023-02-03T22:24:07.694Z,0.00
2023-02-03T22:26:10.519Z,0.00
2023-02-03T22:28:12.153Z,0.00
2023-02-03T22:30:15.612Z,0.67
2023-02-03T22:32:17.316Z,1.00
2023-02-03T22:34:18.883Z,1.00
2023-02-03T22:36:20.482Z,0.00
2023-02-03T22:38:23.643Z,0.00
2023-02-03T22:40:25.549Z,0.00
2023-02-03T22:42:27.126Z,0.00
2023-02-03T22:44:28.728Z,1.00
2023-02-03T22:46:30.619Z,0.00
2023-02-03T22:48:32.611Z,0.00
2023-02-03T22:50:36.546Z,0.33
2023-02-03T22:52:38.752Z,0.00
2023-02-03T22:54:41.889Z,0.00
2023-02-03T22:56:43.471Z,0.00
2023-02-03T22:58:45.354Z,1.00
2023-02-03T23:00:46.920Z,0.00
2023-02-03T23:02:48.790Z,0.00
2023-02-03T23:04:50.636Z,0.00
2023-02-03T23:06:52.423Z,0.00
2023-02-03T23:08:53.989Z,0.00
2023-02-03T23:10:57.257Z,0.00
2023-02-03T23:13:00.189Z,0.00
2023-02-03T23:15:01.922Z,0.00
2023-02-03T23:17:03.710Z,0.00
2023-02-03T23:19:05.345Z,0.00
2023-02-03T23:21:07.419Z,0.00
2023-02-03T23:23:09.205Z,1.00
2023-02-03T23:25:12.073Z,0.00
2023-02-03T23:27:15.080Z,0.00
2023-02-03T23:29:16.922Z,0.00
2023-02-03T23:31:18.658Z,0.67
2023-02-03T23:33:21.310Z,0.00
2023-02-03T23:35:23.102Z,0.00
2023-02-03T23:37:24.847Z,0.00
2023-02-03T23:39:26.636Z,0.00
2023-02-03T23:41:28.306Z,0.00
2023-02-03T23:43:31.229Z,1.33
2023-02-03T23:45:32.920Z,0.00
2023-02-03T23:47:34.631Z,0.00
2023-02-03T23:49:36.156Z,0.00
2023-02-03T23:51:37.746Z,0.00
2023-02-03T23:53:39.564Z,0.00
2023-02-03T23:55:41.384Z,1.00
2023-02-03T23:57:44.771Z,0.00
2023-02-03T23:59:48.157Z,0.00
